Time;durP1;ratioP1;P1;durP2;ratioP2;P2;SDS_P1;SDS_P2;PMS_P1;PMS_P2;Temp;Humidity;BMP_temperature;BMP_pressure;BME280_temperature;BME280_humidity;BME280_pressure;Samples;Min_cycle;Max_cycle;Signal;HPM_P1;HPM_P2
2022/02/16 00:02:44;;;;;;;0.90;0.57;;;9.80;99.90;;;;;;6186701;23;20445;-83
2022/02/16 00:05:23;;;;;;;0.50;0.50;;;9.80;99.90;;;;;;6183699;23;20421;-81
2022/02/16 00:08:03;;;;;;;0.40;0.40;;;9.90;99.90;;;;;;6186168;23;20417;-82
2022/02/16 00:10:43;;;;;;;0.60;0.50;;;9.90;99.90;;;;;;6187154;23;20459;-81
2022/02/16 00:13:21;;;;;;;0.97;0.60;;;9.90;99.90;;;;;;6215652;23;20415;-83
2022/02/16 00:16:09;;;;;;;0.80;0.50;;;9.90;99.90;;;;;;6187347;23;20496;-84
2022/02/16 00:18:51;;;;;;;0.33;0.33;;;9.90;99.90;;;;;;6189761;23;20397;-82
2022/02/16 00:21:20;;;;;;;0.80;0.50;;;9.90;99.90;;;;;;6187131;23;20439;-84
2022/02/16 00:23:58;;;;;;;0.50;0.50;;;9.90;99.90;;;;;;6211732;23;20404;-84
2022/02/16 00:26:37;;;;;;;0.50;0.50;;;9.90;99.90;;;;;;6188226;23;20495;-83
2022/02/16 00:29:25;;;;;;;0.90;0.40;;;9.80;99.90;;;;;;6186768;23;20416;-82
2022/02/16 00:32:09;;;;;;;0.60;0.40;;;9.90;99.90;;;;;;6175167;23;20417;-83
2022/02/16 00:34:41;;;;;;;1.33;0.70;;;9.90;99.90;;;;;;6188538;23;20445;-84
2022/02/16 00:37:11;;;;;;;0.40;0.40;;;10.00;99.90;;;;;;6187696;23;20417;-81
2022/02/16 00:39:38;;;;;;;2.90;0.53;;;10.00;99.90;;;;;;6187617;23;20417;-83
2022/02/16 00:42:21;;;;;;;0.90;0.57;;;9.90;99.90;;;;;;6214936;23;20486;-82
2022/02/16 00:44:53;;;;;;;0.40;0.40;;;9.90;99.90;;;;;;6186567;23;20504;-82
2022/02/16 00:47:23;;;;;;;0.40;0.40;;;10.00;99.90;;;;;;6185702;23;20408;-82
2022/02/16 00:49:53;;;;;;;0.53;0.50;;;10.00;99.90;;;;;;6184995;23;20499;-83
2022/02/16 00:52:26;;;;;;;0.70;0.60;;;10.00;99.90;;;;;;6213463;23;20424;-85
2022/02/16 00:54:58;;;;;;;0.90;0.50;;;10.00;99.90;;;;;;6187305;23;20535;-83
2022/02/16 00:57:57;;;;;;;0.50;0.40;;;9.90;99.90;;;;;;6187554;23;20413;-83
2022/02/16 01:00:53;;;;;;;0.40;0.40;;;10.00;99.90;;;;;;6188632;23;20500;-83
2022/02/16 01:03:21;;;;;;;0.40;0.40;;;10.00;99.90;;;;;;6215130;23;20425;-84
2022/02/16 01:05:48;;;;;;;0.50;0.50;;;10.00;99.90;;;;;;6214529;23;20405;-82
2022/02/16 01:08:21;;;;;;;0.40;0.40;;;10.10;99.90;;;;;;6210302;23;20765;-84
2022/02/16 01:11:05;;;;;;;0.40;0.40;;;10.00;99.90;;;;;;6185558;23;20456;-83
2022/02/16 01:14:11;;;;;;;0.33;0.33;;;10.00;99.90;;;;;;6213007;23;20456;-81
2022/02/16 01:16:50;;;;;;;0.50;0.40;;;10.00;99.90;;;;;;6188061;23;20431;-85
2022/02/16 01:20:26;;;;;;;0.40;0.40;;;9.90;99.90;;;;;;6186710;23;20393;-84
2022/02/16 01:23:16;;;;;;;0.83;0.40;;;10.10;99.90;;;;;;5951263;24;20512;-82
2022/02/16 01:25:48;;;;;;;0.50;0.40;;;10.10;99.90;;;;;;5950096;24;20421;-83
2022/02/16 01:28:33;;;;;;;1.10;0.40;;;10.10;99.90;;;;;;6024060;23;20436;-83
2022/02/16 01:31:11;;;;;;;0.30;0.30;;;10.10;99.90;;;;;;6057214;23;20685;-83
2022/02/16 01:34:02;;;;;;;0.70;0.57;;;10.10;99.90;;;;;;6070552;23;20412;-86
2022/02/16 01:36:54;;;;;;;0.40;0.40;;;10.20;99.90;;;;;;6091681;23;20423;-84
2022/02/16 01:39:56;;;;;;;0.50;0.30;;;10.10;99.90;;;;;;6071153;23;20702;-84
2022/02/16 01:42:47;;;;;;;0.43;0.40;;;10.20;99.90;;;;;;6044718;23;20412;-84
2022/02/16 01:45:38;;;;;;;0.50;0.50;;;10.30;99.90;;;;;;6045310;23;20444;-84
2022/02/16 01:48:15;;;;;;;0.40;0.40;;;10.30;99.90;;;;;;6044608;23;20428;-82
2022/02/16 01:54:15;;;;;;;0.30;0.30;;;10.30;99.90;;;;;;6064187;23;20491;-83
2022/02/16 01:57:04;;;;;;;0.40;0.30;;;10.40;99.90;;;;;;6068194;23;20421;-83
2022/02/16 01:59:56;;;;;;;0.67;0.40;;;10.40;99.90;;;;;;6042390;23;20417;-83
2022/02/16 02:02:36;;;;;;;0.40;0.40;;;10.40;99.90;;;;;;6043982;23;20409;-82
2022/02/16 02:05:50;;;;;;;0.40;0.30;;;10.40;99.90;;;;;;6044140;23;20517;-83
2022/02/16 02:08:26;;;;;;;0.70;0.40;;;10.40;99.90;;;;;;6046250;23;20428;-83
2022/02/16 02:10:59;;;;;;;0.30;0.30;;;10.40;99.90;;;;;;6042830;23;20496;-82
2022/02/16 02:13:51;;;;;;;0.40;0.40;;;10.50;99.90;;;;;;6048625;23;20757;-83
2022/02/16 02:16:36;;;;;;;0.43;0.40;;;10.40;99.90;;;;;;6048638;23;20404;-84
2022/02/16 02:19:20;;;;;;;0.77;0.40;;;10.40;99.90;;;;;;6043981;23;20417;-80
2022/02/16 02:22:05;;;;;;;0.40;0.40;;;10.40;99.90;;;;;;6070745;23;20496;-83
2022/02/16 02:24:57;;;;;;;0.40;0.40;;;10.40;99.90;;;;;;6052951;23;20416;-84
2022/02/16 02:27:38;;;;;;;0.87;0.40;;;10.40;99.90;;;;;;6055112;23;20405;-81
2022/02/16 02:30:20;;;;;;;0.50;0.30;;;10.50;99.90;;;;;;6049465;23;20433;-84
2022/02/16 02:32:57;;;;;;;0.60;0.50;;;10.50;99.90;;;;;;6049089;23;20417;-83
2022/02/16 02:35:25;;;;;;;0.70;0.40;;;10.40;99.90;;;;;;6050947;23;20468;-84
2022/02/16 02:37:52;;;;;;;0.50;0.47;;;10.50;99.90;;;;;;6071606;23;20401;-83
2022/02/16 02:41:06;;;;;;;0.40;0.30;;;10.50;99.90;;;;;;6055746;23;20429;-83
2022/02/16 02:44:03;;;;;;;0.40;0.40;;;10.50;99.90;;;;;;6075565;23;21270;-85
2022/02/16 02:46:44;;;;;;;0.57;0.40;;;10.40;99.90;;;;;;6091953;23;20471;-89
2022/02/16 02:49:27;;;;;;;0.73;0.40;;;10.40;99.90;;;;;;6100801;23;20414;-87
2022/02/16 02:52:21;;;;;;;0.37;0.37;;;10.40;99.90;;;;;;6126995;23;20408;-87
2022/02/16 02:55:02;;;;;;;0.40;0.30;;;10.40;99.90;;;;;;6102105;23;20518;-87
2022/02/16 02:57:53;;;;;;;0.33;0.33;;;10.40;99.90;;;;;;6119234;23;20435;-87
2022/02/16 03:00:22;;;;;;;0.30;0.30;;;10.50;99.90;;;;;;6092407;23;20753;-88
2022/02/16 03:03:02;;;;;;;0.50;0.40;;;10.40;99.90;;;;;;6117355;23;20431;-88
2022/02/16 03:05:35;;;;;;;0.40;0.40;;;10.50;99.90;;;;;;6093368;23;20451;-87
2022/02/16 03:08:11;;;;;;;0.50;0.30;;;10.50;99.90;;;;;;6098478;23;20415;-88
2022/02/16 03:10:47;;;;;;;0.70;0.40;;;10.40;99.90;;;;;;6101757;23;20490;-88
2022/02/16 03:13:27;;;;;;;0.40;0.40;;;10.50;99.90;;;;;;6101985;23;20661;-87
2022/02/16 03:15:57;;;;;;;0.73;0.40;;;10.40;99.90;;;;;;6101828;23;20486;-88
2022/02/16 03:18:28;;;;;;;0.40;0.40;;;10.40;99.90;;;;;;6099906;23;20412;-88
2022/02/16 03:20:58;;;;;;;0.40;0.40;;;10.40;99.90;;;;;;6105964;23;20478;-88
2022/02/16 03:23:27;;;;;;;0.80;0.50;;;10.50;99.90;;;;;;6132820;23;20516;-88
2022/02/16 03:26:10;;;;;;;0.40;0.40;;;10.50;99.90;;;;;;6108994;23;20436;-87
2022/02/16 03:28:40;;;;;;;0.80;0.50;;;10.60;99.90;;;;;;6117588;23;20432;-88
2022/02/16 03:31:16;;;;;;;0.40;0.30;;;10.60;99.90;;;;;;6106108;23;20416;-88
2022/02/16 03:33:45;;;;;;;0.63;0.40;;;10.60;99.90;;;;;;6105011;23;20449;-88
2022/02/16 03:36:15;;;;;;;0.60;0.30;;;10.70;99.90;;;;;;6109702;23;20475;-88
2022/02/16 03:39:05;;;;;;;0.40;0.40;;;10.70;99.90;;;;;;6101967;23;20895;-87
2022/02/16 03:41:45;;;;;;;0.40;0.40;;;10.60;99.90;;;;;;6102208;23;20418;-87
2022/02/16 03:44:20;;;;;;;0.40;0.30;;;10.60;99.90;;;;;;6102709;23;20426;-86
2022/02/16 03:46:55;;;;;;;0.40;0.40;;;10.70;99.90;;;;;;6116652;23;20840;-87
2022/02/16 03:49:28;;;;;;;0.40;0.40;;;10.70;99.90;;;;;;6142571;23;20407;-91
2022/02/16 03:52:12;;;;;;;0.80;0.30;;;10.70;99.90;;;;;;6131067;23;20497;-88
2022/02/16 03:54:39;;;;;;;0.40;0.40;;;10.70;99.90;;;;;;6127871;23;20998;-88
2022/02/16 03:57:18;;;;;;;0.40;0.33;;;10.70;99.90;;;;;;6127303;23;20988;-87
2022/02/16 03:59:58;;;;;;;0.60;0.30;;;10.80;99.90;;;;;;6126544;23;20416;-88
2022/02/16 04:02:33;;;;;;;0.30;0.30;;;10.70;99.90;;;;;;6158706;23;20900;-90
2022/02/16 04:05:17;;;;;;;0.50;0.40;;;10.80;99.90;;;;;;6119378;23;20805;-86
2022/02/16 04:07:50;;;;;;;0.50;0.40;;;10.90;99.90;;;;;;6142242;23;20430;-89
2022/02/16 04:10:28;;;;;;;0.40;0.40;;;10.80;99.90;;;;;;6146782;23;20443;-90
2022/02/16 04:13:00;;;;;;;0.70;0.50;;;10.90;99.90;;;;;;6149715;23;20414;-92
2022/02/16 04:15:33;;;;;;;0.80;0.30;;;11.00;99.90;;;;;;6152583;23;20530;-90
2022/02/16 04:18:20;;;;;;;0.30;0.30;;;10.90;99.90;;;;;;6140412;23;20411;-88
2022/02/16 04:21:02;;;;;;;0.40;0.30;;;10.90;99.90;;;;;;6130819;23;20419;-87
2022/02/16 04:23:53;;;;;;;0.70;0.40;;;11.00;99.90;;;;;;6130221;23;20453;-87
2022/02/16 04:26:28;;;;;;;0.70;0.30;;;10.90;99.90;;;;;;6129084;23;20445;-88
2022/02/16 04:28:58;;;;;;;0.47;0.40;;;10.90;99.90;;;;;;6157030;23;20403;-87
2022/02/16 04:31:55;;;;;;;0.40;0.30;;;10.90;99.90;;;;;;6132824;23;20942;-87
2022/02/16 04:34:35;;;;;;;0.30;0.30;;;11.00;99.90;;;;;;6142043;23;20965;-86
2022/02/16 04:37:08;;;;;;;0.40;0.40;;;10.90;99.90;;;;;;6159934;23;20462;-87
2022/02/16 04:39:48;;;;;;;0.40;0.40;;;10.90;99.90;;;;;;6131702;23;20469;-87
2022/02/16 04:42:31;;;;;;;0.40;0.37;;;10.80;99.90;;;;;;6133467;23;20414;-87
2022/02/16 04:45:10;;;;;;;0.60;0.50;;;10.90;99.90;;;;;;6133142;23;20486;-88
2022/02/16 04:47:52;;;;;;;0.70;0.50;;;10.90;99.90;;;;;;6132521;23;20477;-86
2022/02/16 04:50:35;;;;;;;0.40;0.40;;;10.90;99.90;;;;;;6132670;23;20436;-86
2022/02/16 04:53:11;;;;;;;0.40;0.37;;;10.90;99.90;;;;;;6134111;23;20406;-88
2022/02/16 04:55:56;;;;;;;0.53;0.40;;;10.90;99.90;;;;;;6131875;23;20476;-86
2022/02/16 04:58:38;;;;;;;0.40;0.30;;;10.90;99.90;;;;;;6130657;23;20968;-90
2022/02/16 05:01:20;;;;;;;0.83;0.30;;;10.80;99.90;;;;;;6127957;23;20415;-89
2022/02/16 05:03:54;;;;;;;3.43;0.40;;;10.90;99.90;;;;;;6130148;23;20403;-88
2022/02/16 05:06:24;;;;;;;0.97;0.50;;;10.90;99.90;;;;;;6125254;23;20949;-88
2022/02/16 05:09:01;;;;;;;0.43;0.33;;;10.80;99.90;;;;;;6154187;23;20399;-89
2022/02/16 05:11:39;;;;;;;0.40;0.40;;;10.90;99.90;;;;;;6128322;23;20407;-88
2022/02/16 05:14:12;;;;;;;0.60;0.43;;;11.00;99.90;;;;;;6129230;23;20407;-90
2022/02/16 05:17:02;;;;;;;0.30;0.30;;;11.00;99.90;;;;;;6152669;23;20523;-88
2022/02/16 05:19:46;;;;;;;0.40;0.30;;;11.00;99.90;;;;;;6129677;23;20691;-88
2022/02/16 05:22:30;;;;;;;0.43;0.40;;;10.90;99.90;;;;;;6155153;23;20879;-88
2022/02/16 05:25:14;;;;;;;0.50;0.50;;;11.00;99.90;;;;;;6130508;23;20818;-88
2022/02/16 05:28:09;;;;;;;0.63;0.50;;;11.00;99.90;;;;;;6148219;23;20745;-88
2022/02/16 05:30:43;;;;;;;1.43;0.47;;;11.00;99.90;;;;;;6118249;23;20453;-89
2022/02/16 05:33:17;;;;;;;1.00;0.53;;;11.00;99.90;;;;;;6121200;23;20753;-87
2022/02/16 05:35:54;;;;;;;0.40;0.40;;;11.00;99.90;;;;;;6122018;23;20545;-88
2022/02/16 05:38:30;;;;;;;0.70;0.60;;;11.00;99.90;;;;;;6130119;23;20497;-88
2022/02/16 05:41:03;;;;;;;1.60;0.70;;;11.00;99.90;;;;;;6130485;23;20482;-87
2022/02/16 05:44:03;;;;;;;0.63;0.50;;;11.10;99.90;;;;;;6136264;23;20729;-88
2022/02/16 05:46:37;;;;;;;0.47;0.47;;;11.10;99.90;;;;;;6131158;23;20476;-88
2022/02/16 05:49:10;;;;;;;4.07;0.50;;;11.10;99.90;;;;;;6131593;23;20415;-87
2022/02/16 05:51:38;;;;;;;2.40;0.43;;;11.10;99.90;;;;;;6133586;23;20419;-88
2022/02/16 05:54:12;;;;;;;1.20;0.60;;;11.10;99.90;;;;;;6129527;23;20420;-88
2022/02/16 05:56:42;;;;;;;1.10;0.63;;;11.00;99.90;;;;;;6128201;23;20520;-87
2022/02/16 05:59:17;;;;;;;0.40;0.30;;;11.00;99.90;;;;;;6127885;23;20414;-88
2022/02/16 06:01:47;;;;;;;1.33;0.50;;;11.10;99.90;;;;;;6127606;23;20461;-87
2022/02/16 06:04:25;;;;;;;1.10;0.47;;;11.10;99.90;;;;;;6137326;23;20406;-89
2022/02/16 06:07:00;;;;;;;0.50;0.50;;;11.10;99.90;;;;;;6134441;23;20438;-88
2022/02/16 06:09:37;;;;;;;0.40;0.40;;;11.00;99.90;;;;;;6134323;23;20415;-89
2022/02/16 06:12:37;;;;;;;0.70;0.40;;;11.00;99.90;;;;;;6077621;23;20426;-88
2022/02/16 06:15:20;;;;;;;0.50;0.40;;;11.10;99.90;;;;;;6130007;23;20442;-88
2022/02/16 06:18:02;;;;;;;0.47;0.40;;;11.00;99.90;;;;;;6131326;23;20439;-87
2022/02/16 06:20:32;;;;;;;1.60;0.50;;;11.20;99.90;;;;;;6128220;23;20501;-88
2022/02/16 06:23:15;;;;;;;0.40;0.40;;;11.20;99.90;;;;;;6131029;23;20415;-88
2022/02/16 06:25:47;;;;;;;0.50;0.40;;;11.20;99.90;;;;;;6128907;23;20424;-88
2022/02/16 06:28:28;;;;;;;0.60;0.50;;;11.30;99.90;;;;;;6133367;23;20395;-90
2022/02/16 06:31:17;;;;;;;0.67;0.40;;;11.20;99.90;;;;;;6138651;23;20785;-87
2022/02/16 06:33:52;;;;;;;0.50;0.50;;;11.30;99.90;;;;;;6129504;23;20427;-89
2022/02/16 06:36:30;;;;;;;1.70;0.50;;;11.30;99.90;;;;;;6127751;23;20458;-87
2022/02/16 06:39:03;;;;;;;1.63;1.00;;;11.30;99.90;;;;;;6128359;23;20886;-88
2022/02/16 06:42:00;;;;;;;0.43;0.40;;;11.30;99.90;;;;;;6097073;23;20464;-87
2022/02/16 06:44:37;;;;;;;0.90;0.40;;;11.30;99.90;;;;;;6133912;23;20509;-91
2022/02/16 06:47:48;;;;;;;1.20;0.50;;;11.30;99.90;;;;;;6130311;23;20962;-85
2022/02/16 06:50:30;;;;;;;0.63;0.50;;;11.30;99.90;;;;;;6131181;23;20415;-88
2022/02/16 06:53:17;;;;;;;1.03;0.40;;;11.40;99.90;;;;;;6157689;23;20498;-88
2022/02/16 06:56:22;;;;;;;0.50;0.50;;;11.50;99.90;;;;;;6123846;23;20957;-88
2022/02/16 06:58:59;;;;;;;0.60;0.60;;;11.50;99.90;;;;;;6147046;23;20411;-90
2022/02/16 07:01:39;;;;;;;1.20;0.53;;;11.40;99.90;;;;;;6174393;23;20415;-87
2022/02/16 07:04:17;;;;;;;3.60;0.50;;;11.30;99.90;;;;;;6148078;23;20858;-87
2022/02/16 07:07:05;;;;;;;0.53;0.50;;;11.40;99.90;;;;;;6146814;23;20436;-90
2022/02/16 07:09:53;;;;;;;0.80;0.40;;;11.50;99.90;;;;;;6138869;23;20875;-87
2022/02/16 07:12:40;;;;;;;0.50;0.50;;;11.50;99.90;;;;;;6133329;23;20882;-89
2022/02/16 07:15:21;;;;;;;0.50;0.43;;;11.50;99.90;;;;;;6157050;23;20453;-87
2022/02/16 07:18:10;;;;;;;0.70;0.70;;;11.50;99.90;;;;;;6131428;23;20434;-87
2022/02/16 07:20:40;;;;;;;0.60;0.60;;;11.50;99.90;;;;;;6129788;23;20421;-88
2022/02/16 07:23:14;;;;;;;0.50;0.40;;;11.60;99.90;;;;;;6131937;23;20422;-88
2022/02/16 07:26:05;;;;;;;1.10;0.40;;;11.60;99.90;;;;;;6164001;23;20425;-89
2022/02/16 07:28:46;;;;;;;2.10;0.40;;;11.60;99.90;;;;;;6130534;23;20513;-87
2022/02/16 07:31:31;;;;;;;0.30;0.30;;;11.60;99.90;;;;;;6131409;23;20452;-87
2022/02/16 07:34:03;;;;;;;0.60;0.50;;;11.50;99.90;;;;;;6131299;23;20466;-86
2022/02/16 07:36:34;;;;;;;0.50;0.50;;;11.60;99.90;;;;;;6130253;23;20466;-88
2022/02/16 07:39:07;;;;;;;0.50;0.50;;;11.60;99.90;;;;;;6131276;23;20773;-86
2022/02/16 07:41:45;;;;;;;0.40;0.30;;;11.70;99.90;;;;;;6156197;23;20430;-86
2022/02/16 07:44:23;;;;;;;0.43;0.40;;;11.70;99.90;;;;;;6134318;23;20411;-87
2022/02/16 07:47:33;;;;;;;1.17;0.50;;;11.60;99.90;;;;;;6133838;23;20832;-87
2022/02/16 07:50:05;;;;;;;1.00;0.40;;;11.70;99.90;;;;;;6100617;23;20500;-87
2022/02/16 07:52:38;;;;;;;0.50;0.50;;;11.70;99.90;;;;;;6135999;23;20796;-88
2022/02/16 07:55:36;;;;;;;0.47;0.40;;;11.70;99.90;;;;;;6136410;23;20446;-87
2022/02/16 07:58:12;;;;;;;0.40;0.40;;;11.70;99.90;;;;;;6130958;23;20399;-88
2022/02/16 08:01:00;;;;;;;0.40;0.40;;;11.60;99.90;;;;;;6131032;23;20411;-87
2022/02/16 08:03:51;;;;;;;1.37;0.70;;;11.50;99.90;;;;;;6132556;23;20426;-88
2022/02/16 08:06:28;;;;;;;0.43;0.40;;;11.70;99.90;;;;;;6128518;23;20439;-85
2022/02/16 08:09:10;;;;;;;1.23;0.40;;;11.80;99.90;;;;;;6131860;23;21083;-86
2022/02/16 08:11:50;;;;;;;0.40;0.40;;;11.70;99.90;;;;;;6130983;23;20407;-85
2022/02/16 08:14:22;;;;;;;0.30;0.30;;;11.70;99.90;;;;;;6127803;23;20414;-85
2022/02/16 08:16:52;;;;;;;0.77;0.40;;;11.70;99.90;;;;;;6128528;23;20455;-86
2022/02/16 08:19:26;;;;;;;0.70;0.40;;;11.70;99.90;;;;;;6131374;23;20465;-85
2022/02/16 08:22:04;;;;;;;0.50;0.50;;;11.60;99.90;;;;;;6155819;23;20817;-84
2022/02/16 08:24:37;;;;;;;1.00;0.40;;;11.60;99.90;;;;;;6129990;23;20406;-85
2022/02/16 08:27:15;;;;;;;0.30;0.30;;;11.60;99.90;;;;;;6154463;23;20450;-85
2022/02/16 08:29:44;;;;;;;0.50;0.30;;;11.70;99.90;;;;;;6153045;23;20429;-85
2022/02/16 08:32:20;;;;;;;0.40;0.40;;;11.80;99.90;;;;;;6130877;23;20494;-86
2022/02/16 08:34:56;;;;;;;0.40;0.40;;;11.90;99.90;;;;;;6129599;23;20411;-85
2022/02/16 08:37:45;;;;;;;0.40;0.40;;;11.90;99.90;;;;;;6148166;23;20454;-87
2022/02/16 08:40:15;;;;;;;0.40;0.40;;;11.90;99.90;;;;;;6142839;23;20502;-85
2022/02/16 08:43:07;;;;;;;0.40;0.40;;;11.90;99.90;;;;;;6139521;23;20410;-85
2022/02/16 08:45:38;;;;;;;0.57;0.40;;;11.80;99.90;;;;;;6135002;23;20409;-85
2022/02/16 08:48:09;;;;;;;0.93;0.50;;;11.90;99.90;;;;;;6132498;23;20817;-85
2022/02/16 08:50:50;;;;;;;0.60;0.40;;;11.80;99.90;;;;;;6138195;23;20451;-84
2022/02/16 08:53:27;;;;;;;0.50;0.43;;;11.70;99.90;;;;;;6134993;23;20402;-85
2022/02/16 08:56:11;;;;;;;0.40;0.40;;;11.80;99.90;;;;;;6133752;23;20542;-85
2022/02/16 08:58:51;;;;;;;1.57;0.80;;;12.10;99.90;;;;;;6131935;23;20917;-85
2022/02/16 09:01:26;;;;;;;1.07;0.70;;;12.20;99.90;;;;;;6130842;23;20450;-85
2022/02/16 09:04:09;;;;;;;1.07;0.70;;;12.30;99.90;;;;;;6154166;23;20418;-85
2022/02/16 09:07:27;;;;;;;1.67;0.83;;;12.20;99.90;;;;;;6131873;23;20490;-85
2022/02/16 09:09:40;;;;;;;0.87;0.70;;;12.10;99.90;;;;;;6155557;23;20411;-85
2022/02/16 09:12:15;;;;;;;0.40;0.40;;;12.00;99.90;;;;;;6143461;23;20422;-85
2022/02/16 09:14:45;;;;;;;2.10;0.60;;;12.30;99.90;;;;;;6131016;23;20411;-86
2022/02/16 09:17:12;;;;;;;0.57;0.50;;;12.10;99.90;;;;;;6154815;23;20443;-85
2022/02/16 09:19:39;;;;;;;0.47;0.40;;;12.20;99.90;;;;;;6155045;23;20429;-87
2022/02/16 09:22:06;;;;;;;0.50;0.30;;;12.40;99.90;;;;;;6155571;23;20441;-86
2022/02/16 09:24:33;;;;;;;0.50;0.40;;;12.50;99.90;;;;;;6131423;23;20473;-85
2022/02/16 09:27:01;;;;;;;1.47;0.60;;;12.60;99.90;;;;;;6156478;23;20517;-85
2022/02/16 09:29:27;;;;;;;1.77;0.50;;;12.30;99.90;;;;;;6127843;23;20451;-86
2022/02/16 09:31:55;;;;;;;0.60;0.50;;;12.20;99.90;;;;;;6153336;23;20418;-84
2022/02/16 09:34:22;;;;;;;0.83;0.50;;;12.30;99.90;;;;;;6128494;23;20419;-85
2022/02/16 09:36:51;;;;;;;0.50;0.50;;;12.20;99.90;;;;;;6154891;23;20446;-85
2022/02/16 09:39:18;;;;;;;2.83;0.90;;;12.10;99.90;;;;;;6153932;23;20826;-85
2022/02/16 09:41:47;;;;;;;1.57;0.53;;;12.20;99.90;;;;;;6127761;23;20414;-87
2022/02/16 09:44:17;;;;;;;0.50;0.50;;;12.30;99.90;;;;;;6129700;23;20891;-85
2022/02/16 09:46:44;;;;;;;0.87;0.53;;;12.40;99.90;;;;;;6156194;23;20446;-85
2022/02/16 09:49:12;;;;;;;0.60;0.50;;;12.30;99.90;;;;;;6130236;23;20750;-84
2022/02/16 09:51:39;;;;;;;0.70;0.57;;;12.20;99.90;;;;;;6129644;23;20418;-85
2022/02/16 09:54:06;;;;;;;1.10;0.70;;;12.40;99.90;;;;;;6130566;23;20418;-86
2022/02/16 09:56:34;;;;;;;0.70;0.70;;;12.40;99.90;;;;;;6155058;23;20481;-86
2022/02/16 09:59:13;;;;;;;0.60;0.50;;;12.40;99.90;;;;;;6128941;23;20418;-86
2022/02/16 10:02:15;;;;;;;;;;;;;;;;;;;;;
2022/02/16 10:05:02;;;;;;;0.50;0.50;;;12.60;99.90;;;;;;6157126;23;20478;-85
2022/02/16 10:07:39;;;;;;;0.40;0.40;;;12.60;99.90;;;;;;6130496;23;20434;-85
2022/02/16 10:10:18;;;;;;;0.40;0.40;;;12.70;99.90;;;;;;6147512;23;20402;-88
2022/02/16 10:12:48;;;;;;;0.50;0.40;;;12.80;99.90;;;;;;6154547;23;20422;-87
2022/02/16 10:15:33;;;;;;;0.50;0.50;;;12.90;99.90;;;;;;6156054;23;20387;-88
2022/02/16 10:18:18;;;;;;;0.40;0.40;;;12.70;99.90;;;;;;6181509;23;20466;-87
2022/02/16 10:21:12;;;;;;;1.30;0.50;;;12.70;99.90;;;;;;6147326;23;20470;-85
2022/02/16 10:23:48;;;;;;;0.50;0.50;;;12.70;99.90;;;;;;6134748;23;20531;-83
2022/02/16 10:26:51;;;;;;;1.17;0.50;;;12.80;99.90;;;;;;6137199;23;20426;-84
2022/02/16 10:29:30;;;;;;;0.40;0.40;;;13.10;99.90;;;;;;6135835;23;20410;-84
2022/02/16 10:32:05;;;;;;;0.50;0.40;;;13.20;99.90;;;;;;6161727;23;20427;-84
2022/02/16 10:34:56;;;;;;;0.77;0.40;;;13.30;99.90;;;;;;6133747;23;20799;-85
2022/02/16 10:37:36;;;;;;;0.60;0.50;;;13.30;99.90;;;;;;6134889;23;20454;-85
2022/02/16 10:40:18;;;;;;;0.57;0.40;;;13.30;99.90;;;;;;6135128;23;20488;-85
2022/02/16 10:43:01;;;;;;;0.50;0.40;;;13.50;99.90;;;;;;6134129;23;20441;-84
2022/02/16 10:45:43;;;;;;;0.60;0.50;;;13.60;99.90;;;;;;6133383;23;20926;-84
2022/02/16 10:48:21;;;;;;;1.10;0.40;;;13.50;99.90;;;;;;6135030;23;20426;-84
2022/02/16 10:50:58;;;;;;;0.30;0.30;;;13.80;99.90;;;;;;6161832;23;20426;-84
2022/02/16 10:53:29;;;;;;;1.07;0.50;;;13.70;99.90;;;;;;6134732;23;20407;-84
2022/02/16 10:56:07;;;;;;;0.50;0.50;;;13.90;99.90;;;;;;6159134;23;20505;-84
2022/02/16 10:58:38;;;;;;;0.73;0.50;;;13.80;99.90;;;;;;6133923;23;20461;-84
2022/02/16 11:01:18;;;;;;;0.60;0.50;;;13.70;99.90;;;;;;6133785;23;20421;-85
2022/02/16 11:03:53;;;;;;;0.40;0.40;;;13.90;99.90;;;;;;6135791;23;20406;-84
2022/02/16 11:07:04;;;;;;;0.90;0.43;;;13.80;99.90;;;;;;6137959;23;20474;-86
2022/02/16 11:09:40;;;;;;;1.70;0.43;;;13.70;99.90;;;;;;6169476;23;20414;-87
2022/02/16 11:12:16;;;;;;;2.47;0.60;;;13.60;99.90;;;;;;6155556;23;20409;-88
2022/02/16 11:14:47;;;;;;;0.87;0.50;;;13.80;99.90;;;;;;6142835;23;20473;-86
2022/02/16 11:17:31;;;;;;;1.80;0.60;;;13.80;99.90;;;;;;6139255;23;20473;-86
2022/02/16 11:20:23;;;;;;;0.70;0.40;;;13.80;99.90;;;;;;6136939;23;20438;-85
2022/02/16 11:23:05;;;;;;;0.60;0.50;;;14.20;99.90;;;;;;6162816;23;20509;-85
2022/02/16 11:25:50;;;;;;;0.83;0.50;;;14.10;99.90;;;;;;6141996;23;20425;-85
2022/02/16 11:28:33;;;;;;;0.40;0.40;;;14.00;99.90;;;;;;6134539;23;20414;-86
2022/02/16 11:31:28;;;;;;;0.67;0.50;;;13.80;99.90;;;;;;6159420;23;20485;-86
2022/02/16 11:34:17;;;;;;;0.57;0.43;;;13.80;99.90;;;;;;6136468;23;20399;-86
2022/02/16 11:36:53;;;;;;;0.63;0.40;;;14.10;99.90;;;;;;6135362;23;20842;-85
2022/02/16 11:39:54;;;;;;;2.00;0.43;;;14.00;99.90;;;;;;6133983;23;20501;-87
2022/02/16 11:42:51;;;;;;;0.80;0.60;;;14.00;99.90;;;;;;6132023;23;20506;-86
2022/02/16 11:45:36;;;;;;;1.60;0.97;;;14.00;99.90;;;;;;6135861;23;20467;-86
2022/02/16 11:48:47;;;;;;;0.60;0.60;;;14.10;99.90;;;;;;6141727;23;20451;-86
2022/02/16 11:51:42;;;;;;;0.47;0.40;;;13.90;99.90;;;;;;6039305;23;20390;-88
2022/02/16 11:54:55;;;;;;;0.60;0.40;;;14.00;99.90;;;;;;6060711;23;20473;-88
2022/02/16 11:57:46;;;;;;;0.40;0.40;;;13.90;99.90;;;;;;6055835;23;20443;-86
2022/02/16 12:00:38;;;;;;;0.40;0.40;;;14.00;99.90;;;;;;5996351;23;20431;-85
2022/02/16 12:06:26;;;;;;;0.40;0.40;;;14.10;99.90;;;;;;6155065;23;20443;-87
2022/02/16 12:09:42;;;;;;;1.07;0.37;;;14.20;99.90;;;;;;6143548;23;20453;-85
2022/02/16 12:12:19;;;;;;;0.40;0.30;;;14.30;99.90;;;;;;6139816;23;20419;-87
2022/02/16 12:14:58;;;;;;;4.63;0.50;;;14.20;99.90;;;;;;6141296;23;20530;-85
2022/02/16 12:18:00;;;;;;;0.40;0.30;;;14.30;99.90;;;;;;6144735;23;20847;-87
2022/02/16 12:21:02;;;;;;;0.60;0.50;;;14.40;99.90;;;;;;6142140;23;20422;-86
2022/02/16 12:24:19;;;;;;;0.40;0.37;;;14.40;99.90;;;;;;6169266;23;20430;-85
2022/02/16 12:27:09;;;;;;;0.50;0.40;;;14.40;99.90;;;;;;6140157;23;20407;-85
2022/02/16 12:29:52;;;;;;;0.40;0.30;;;14.50;99.90;;;;;;6145835;23;20438;-85
2022/02/16 12:32:34;;;;;;;4.67;0.60;;;14.70;99.90;;;;;;6167250;23;20413;-86
2022/02/16 12:35:21;;;;;;;0.70;0.50;;;14.60;99.90;;;;;;6147059;23;20407;-84
2022/02/16 12:38:59;;;;;;;4.00;0.53;;;14.60;99.90;;;;;;6170837;23;20781;-86
2022/02/16 12:42:03;;;;;;;4.93;0.70;;;14.60;99.90;;;;;;6147496;23;20628;-85
2022/02/16 12:44:56;;;;;;;0.60;0.50;;;14.60;99.90;;;;;;6172703;23;20470;-85
2022/02/16 12:47:33;;;;;;;0.40;0.40;;;14.60;99.90;;;;;;6165532;23;20477;-86
2022/02/16 12:50:24;;;;;;;1.00;0.43;;;14.60;99.90;;;;;;6137140;23;20410;-86
2022/02/16 12:53:03;;;;;;;0.50;0.40;;;14.70;99.90;;;;;;6141230;23;20424;-85
2022/02/16 12:55:52;;;;;;;0.70;0.50;;;14.70;99.90;;;;;;6164633;23;20781;-86
2022/02/16 12:58:30;;;;;;;0.40;0.40;;;14.80;99.90;;;;;;6163605;23;20450;-86
2022/02/16 13:00:59;;;;;;;1.33;0.60;;;14.70;99.90;;;;;;6134678;23;20406;-85
2022/02/16 13:03:50;;;;;;;;;;;;;;;;;;;;;
2022/02/16 13:06:22;;;;;;;0.90;0.50;;;14.70;99.90;;;;;;6164201;23;20411;-85
2022/02/16 13:08:53;;;;;;;0.40;0.40;;;14.60;99.90;;;;;;6140265;23;21054;-84
2022/02/16 13:11:42;;;;;;;0.90;0.50;;;14.50;99.90;;;;;;6164785;23;20496;-86
2022/02/16 13:14:31;;;;;;;1.50;0.60;;;14.40;99.90;;;;;;6137716;23;20418;-85
2022/02/16 13:18:09;;;;;;;1.07;0.77;;;14.40;99.90;;;;;;6145998;23;20494;-85
2022/02/16 13:21:10;;;;;;;0.63;0.63;;;14.20;99.90;;;;;;6141667;23;20410;-86
2022/02/16 13:23:51;;;;;;;1.20;0.80;;;14.20;99.90;;;;;;6136496;23;20451;-86
2022/02/16 13:26:47;;;;;;;1.00;0.70;;;14.10;99.90;;;;;;6142903;23;20415;-86
2022/02/16 13:30:00;;;;;;;0.50;0.50;;;14.10;99.90;;;;;;6144167;23;20419;-86
2022/02/16 13:32:59;;;;;;;1.07;0.60;;;14.10;99.90;;;;;;6145335;23;20695;-85
2022/02/16 13:36:05;;;;;;;1.27;0.57;;;14.10;99.90;;;;;;6142491;23;20485;-86
2022/02/16 13:38:55;;;;;;;2.50;0.73;;;14.00;99.90;;;;;;6140968;23;20431;-86
2022/02/16 13:42:02;;;;;;;0.93;0.50;;;14.10;99.90;;;;;;6135490;23;20494;-85
2022/02/16 13:51:48;;;;;;;5.13;0.97;;;14.30;99.90;;;;;;6023512;23;20406;-86
2022/02/16 13:54:27;;;;;;;4.47;1.00;;;14.30;99.90;;;;;;6023135;23;20437;-86
2022/02/16 13:57:05;;;;;;;5.00;2.17;;;14.30;99.90;;;;;;6056259;23;20460;-86
2022/02/16 14:00:10;;;;;;;3.17;1.27;;;14.30;99.90;;;;;;6057626;23;20462;-85
2022/02/16 14:03:08;;;;;;;2.83;1.03;;;14.40;99.90;;;;;;6032489;23;20477;-87
2022/02/16 14:05:45;;;;;;;2.83;0.90;;;14.40;99.90;;;;;;6076946;23;20444;-84
2022/02/16 14:08:16;;;;;;;3.73;1.67;;;14.40;99.90;;;;;;6081937;23;20841;-84
2022/02/16 14:10:51;;;;;;;1.70;1.43;;;14.50;99.90;;;;;;6165086;23;20418;-85
2022/02/16 14:13:23;;;;;;;1.77;1.00;;;14.40;99.90;;;;;;6166431;23;20560;-86
2022/02/16 14:16:20;;;;;;;3.00;1.10;;;14.50;99.90;;;;;;6168256;23;20418;-87
2022/02/16 14:22:11;;;;;;;1.67;0.90;;;14.50;99.90;;;;;;6069245;23;20413;-85
2022/02/16 14:24:45;;;;;;;1.50;1.20;;;14.50;99.90;;;;;;6047134;23;20410;-85